sensor_id;sensor_type;location;lat;lon;timestamp;pressure;altitude;pressure_sealevel;temperature;humidity
38163;BME280;23977;53.078;18.248;2023-05-16T00:00:06;100145.50;;;12.99;100.00
38163;BME280;23977;53.078;18.248;2023-05-16T00:02:53;100128.97;;;12.88;100.00
38163;BME280;23977;53.078;18.248;2023-05-16T00:05:19;100121.88;;;12.74;100.00
38163;BME280;23977;53.078;18.248;2023-05-16T00:07:45;100166.50;;;13.02;100.00
38163;BME280;23977;53.078;18.248;2023-05-16T00:10:12;100149.97;;;12.91;100.00
38163;BME280;23977;53.078;18.248;2023-05-16T00:12:38;100161.97;;;13.02;100.00
38163;BME280;23977;53.078;18.248;2023-05-16T00:15:05;100166.13;;;13.05;100.00
38163;BME280;23977;53.078;18.248;2023-05-16T00:17:34;100160.03;;;13.11;100.00
38163;BME280;23977;53.078;18.248;2023-05-16T00:20:01;100127.59;;;12.92;100.00
38163;BME280;23977;53.078;18.248;2023-05-16T00:22:39;100112.09;;;12.81;100.00
38163;BME280;23977;53.078;18.248;2023-05-16T00:25:05;100126.56;;;12.93;100.00
38163;BME280;23977;53.078;18.248;2023-05-16T00:27:33;100169.81;;;13.04;100.00
38163;BME280;23977;53.078;18.248;2023-05-16T00:29:59;100111.09;;;12.67;100.00
38163;BME280;23977;53.078;18.248;2023-05-16T00:32:26;100132.16;;;12.77;100.00
38163;BME280;23977;53.078;18.248;2023-05-16T00:34:51;100159.78;;;13.06;100.00
38163;BME280;23977;53.078;18.248;2023-05-16T00:37:17;100151.22;;;12.95;100.00
38163;BME280;23977;53.078;18.248;2023-05-16T00:39:42;100122.63;;;12.68;100.00
38163;BME280;23977;53.078;18.248;2023-05-16T00:42:08;100160.38;;;12.65;100.00
38163;BME280;23977;53.078;18.248;2023-05-16T00:44:33;100141.06;;;12.63;100.00
38163;BME280;23977;53.078;18.248;2023-05-16T00:46:59;100150.28;;;12.82;100.00
38163;BME280;23977;53.078;18.248;2023-05-16T00:49:27;100173.50;;;12.81;100.00
38163;BME280;23977;53.078;18.248;2023-05-16T00:51:53;100164.31;;;12.90;100.00
38163;BME280;23977;53.078;18.248;2023-05-16T00:54:20;100160.16;;;12.81;100.00
38163;BME280;23977;53.078;18.248;2023-05-16T00:56:47;100159.06;;;12.61;100.00
38163;BME280;23977;53.078;18.248;2023-05-16T00:59:13;100154.59;;;12.61;100.00
38163;BME280;23977;53.078;18.248;2023-05-16T01:01:39;100150.31;;;12.67;100.00
38163;BME280;23977;53.078;18.248;2023-05-16T01:04:06;100177.81;;;12.82;100.00
38163;BME280;23977;53.078;18.248;2023-05-16T01:06:33;100172.47;;;12.82;100.00
38163;BME280;23977;53.078;18.248;2023-05-16T01:08:59;100165.44;;;12.59;100.00
38163;BME280;23977;53.078;18.248;2023-05-16T01:14:25;100173.59;;;12.73;100.00
38163;BME280;23977;53.078;18.248;2023-05-16T01:19:46;100183.00;;;12.69;100.00
38163;BME280;23977;53.078;18.248;2023-05-16T01:22:37;100187.81;;;12.58;100.00
38163;BME280;23977;53.078;18.248;2023-05-16T01:27:56;100156.25;;;12.47;100.00
38163;BME280;23977;53.078;18.248;2023-05-16T01:30:23;100194.34;;;12.71;100.00
38163;BME280;23977;53.078;18.248;2023-05-16T01:32:48;100202.97;;;12.73;100.00
38163;BME280;23977;53.078;18.248;2023-05-16T01:35:15;100200.56;;;12.78;100.00
38163;BME280;23977;53.078;18.248;2023-05-16T01:37:58;100175.88;;;12.54;100.00
38163;BME280;23977;53.078;18.248;2023-05-16T01:40:37;100202.44;;;12.63;100.00
38163;BME280;23977;53.078;18.248;2023-05-16T01:43:11;100199.50;;;12.72;100.00
38163;BME280;23977;53.078;18.248;2023-05-16T01:45:41;100178.81;;;12.59;100.00
38163;BME280;23977;53.078;18.248;2023-05-16T01:48:15;100167.69;;;12.41;100.00
38163;BME280;23977;53.078;18.248;2023-05-16T01:50:46;100155.88;;;12.50;100.00
38163;BME280;23977;53.078;18.248;2023-05-16T01:53:21;100176.69;;;12.55;100.00
38163;BME280;23977;53.078;18.248;2023-05-16T01:55:50;100172.56;;;12.52;100.00
38163;BME280;23977;53.078;18.248;2023-05-16T01:58:19;100173.13;;;12.33;100.00
38163;BME280;23977;53.078;18.248;2023-05-16T02:00:45;100208.25;;;12.66;100.00
38163;BME280;23977;53.078;18.248;2023-05-16T02:03:11;100218.28;;;12.64;100.00
38163;BME280;23977;53.078;18.248;2023-05-16T02:05:36;100222.78;;;12.64;100.00
38163;BME280;23977;53.078;18.248;2023-05-16T02:08:03;100225.19;;;12.58;100.00
38163;BME280;23977;53.078;18.248;2023-05-16T02:10:28;100199.91;;;12.39;100.00
38163;BME280;23977;53.078;18.248;2023-05-16T02:12:54;100205.06;;;12.41;100.00
38163;BME280;23977;53.078;18.248;2023-05-16T02:15:20;100194.38;;;12.41;100.00
38163;BME280;23977;53.078;18.248;2023-05-16T02:17:46;100234.00;;;12.74;100.00
38163;BME280;23977;53.078;18.248;2023-05-16T02:20:12;100235.78;;;12.52;100.00
38163;BME280;23977;53.078;18.248;2023-05-16T02:22:37;100243.41;;;12.55;100.00
38163;BME280;23977;53.078;18.248;2023-05-16T02:25:08;100198.16;;;12.32;100.00
38163;BME280;23977;53.078;18.248;2023-05-16T02:27:34;100220.72;;;12.29;100.00
38163;BME280;23977;53.078;18.248;2023-05-16T02:30:00;100235.84;;;12.58;100.00
38163;BME280;23977;53.078;18.248;2023-05-16T02:32:26;100234.41;;;12.56;100.00
38163;BME280;23977;53.078;18.248;2023-05-16T02:34:52;100257.22;;;12.58;100.00
38163;BME280;23977;53.078;18.248;2023-05-16T02:37:17;100262.34;;;12.75;100.00
38163;BME280;23977;53.078;18.248;2023-05-16T02:39:43;100256.94;;;12.53;100.00
38163;BME280;23977;53.078;18.248;2023-05-16T02:42:09;100243.06;;;12.43;100.00
38163;BME280;23977;53.078;18.248;2023-05-16T02:44:34;100225.09;;;12.37;100.00
38163;BME280;23977;53.078;18.248;2023-05-16T02:47:00;100276.06;;;12.72;100.00
38163;BME280;23977;53.078;18.248;2023-05-16T02:49:25;100217.00;;;12.30;100.00
38163;BME280;23977;53.078;18.248;2023-05-16T02:51:51;100246.53;;;12.44;100.00
38163;BME280;23977;53.078;18.248;2023-05-16T02:54:17;100274.53;;;12.63;100.00
38163;BME280;23977;53.078;18.248;2023-05-16T02:56:42;100266.06;;;12.44;100.00
38163;BME280;23977;53.078;18.248;2023-05-16T02:59:10;100276.44;;;12.54;100.00
38163;BME280;23977;53.078;18.248;2023-05-16T03:01:35;100288.88;;;12.62;100.00
38163;BME280;23977;53.078;18.248;2023-05-16T03:04:01;100255.38;;;12.14;100.00
38163;BME280;23977;53.078;18.248;2023-05-16T03:06:27;100246.44;;;12.22;100.00
38163;BME280;23977;53.078;18.248;2023-05-16T03:08:52;100286.38;;;12.60;100.00
38163;BME280;23977;53.078;18.248;2023-05-16T03:11:18;100258.44;;;12.41;100.00
38163;BME280;23977;53.078;18.248;2023-05-16T03:13:47;100276.94;;;12.43;100.00
38163;BME280;23977;53.078;18.248;2023-05-16T03:16:13;100300.28;;;12.55;100.00
38163;BME280;23977;53.078;18.248;2023-05-16T03:18:40;100308.78;;;12.44;100.00
38163;BME280;23977;53.078;18.248;2023-05-16T03:21:05;100313.53;;;12.49;100.00
38163;BME280;23977;53.078;18.248;2023-05-16T03:23:31;100287.59;;;12.28;100.00
38163;BME280;23977;53.078;18.248;2023-05-16T03:25:57;100312.91;;;12.47;100.00
38163;BME280;23977;53.078;18.248;2023-05-16T03:28:23;100295.16;;;12.39;100.00
38163;BME280;23977;53.078;18.248;2023-05-16T03:30:49;100272.66;;;12.18;100.00
38163;BME280;23977;53.078;18.248;2023-05-16T03:33:14;100315.28;;;12.42;100.00
38163;BME280;23977;53.078;18.248;2023-05-16T03:35:41;100239.19;;;12.01;100.00
38163;BME280;23977;53.078;18.248;2023-05-16T03:38:07;100325.25;;;12.48;100.00
38163;BME280;23977;53.078;18.248;2023-05-16T03:40:34;100328.53;;;12.50;100.00
38163;BME280;23977;53.078;18.248;2023-05-16T03:42:59;100348.25;;;12.64;100.00
38163;BME280;23977;53.078;18.248;2023-05-16T03:45:25;100344.22;;;12.68;100.00
38163;BME280;23977;53.078;18.248;2023-05-16T03:47:50;100317.78;;;12.43;100.00
38163;BME280;23977;53.078;18.248;2023-05-16T03:50:16;100346.16;;;12.59;100.00
38163;BME280;23977;53.078;18.248;2023-05-16T03:52:42;100338.94;;;12.59;100.00
38163;BME280;23977;53.078;18.248;2023-05-16T03:55:08;100316.38;;;12.47;100.00
38163;BME280;23977;53.078;18.248;2023-05-16T03:57:36;100341.34;;;12.84;100.00
38163;BME280;23977;53.078;18.248;2023-05-16T04:00:03;100288.88;;;12.47;100.00
38163;BME280;23977;53.078;18.248;2023-05-16T04:02:31;100342.16;;;12.85;100.00
38163;BME280;23977;53.078;18.248;2023-05-16T04:04:57;100320.00;;;12.84;100.00
38163;BME280;23977;53.078;18.248;2023-05-16T04:07:22;100340.97;;;12.87;100.00
38163;BME280;23977;53.078;18.248;2023-05-16T04:09:48;100358.28;;;12.91;100.00
38163;BME280;23977;53.078;18.248;2023-05-16T04:12:13;100320.19;;;12.68;100.00
38163;BME280;23977;53.078;18.248;2023-05-16T04:14:39;100380.56;;;12.99;100.00
38163;BME280;23977;53.078;18.248;2023-05-16T04:17:04;100382.47;;;13.20;100.00
38163;BME280;23977;53.078;18.248;2023-05-16T04:19:30;100359.09;;;13.07;100.00
38163;BME280;23977;53.078;18.248;2023-05-16T04:21:56;100371.78;;;13.20;100.00
38163;BME280;23977;53.078;18.248;2023-05-16T04:24:21;100405.06;;;13.32;100.00
38163;BME280;23977;53.078;18.248;2023-05-16T04:26:50;100362.97;;;13.04;100.00
38163;BME280;23977;53.078;18.248;2023-05-16T04:29:16;100386.63;;;13.22;100.00
38163;BME280;23977;53.078;18.248;2023-05-16T04:31:42;100411.88;;;13.35;100.00
38163;BME280;23977;53.078;18.248;2023-05-16T04:34:08;100408.09;;;13.29;100.00
38163;BME280;23977;53.078;18.248;2023-05-16T04:36:33;100422.38;;;13.21;100.00
38163;BME280;23977;53.078;18.248;2023-05-16T04:39:00;100429.00;;;13.25;100.00
38163;BME280;23977;53.078;18.248;2023-05-16T04:41:25;100414.44;;;13.13;100.00
38163;BME280;23977;53.078;18.248;2023-05-16T04:43:51;100426.81;;;13.14;100.00
38163;BME280;23977;53.078;18.248;2023-05-16T04:46:17;100432.16;;;13.29;100.00
38163;BME280;23977;53.078;18.248;2023-05-16T04:48:43;100447.50;;;13.57;100.00
38163;BME280;23977;53.078;18.248;2023-05-16T04:51:09;100437.63;;;13.57;100.00
38163;BME280;23977;53.078;18.248;2023-05-16T04:53:35;100391.03;;;13.45;100.00
38163;BME280;23977;53.078;18.248;2023-05-16T04:56:00;100469.03;;;13.85;100.00
38163;BME280;23977;53.078;18.248;2023-05-16T04:58:26;100440.28;;;13.72;100.00
38163;BME280;23977;53.078;18.248;2023-05-16T05:00:52;100466.97;;;13.87;100.00
38163;BME280;23977;53.078;18.248;2023-05-16T05:03:17;100447.56;;;13.78;100.00
38163;BME280;23977;53.078;18.248;2023-05-16T05:05:43;100483.03;;;13.87;100.00
38163;BME280;23977;53.078;18.248;2023-05-16T05:08:10;100446.22;;;13.67;100.00
38163;BME280;23977;53.078;18.248;2023-05-16T05:10:36;100479.22;;;13.96;100.00
38163;BME280;23977;53.078;18.248;2023-05-16T05:13:01;100502.41;;;14.25;100.00
38163;BME280;23977;53.078;18.248;2023-05-16T05:15:27;100492.75;;;14.31;100.00
38163;BME280;23977;53.078;18.248;2023-05-16T05:17:53;100515.00;;;14.53;100.00
38163;BME280;23977;53.078;18.248;2023-05-16T05:20:19;100497.88;;;14.48;100.00
38163;BME280;23977;53.078;18.248;2023-05-16T05:22:46;100530.25;;;14.74;100.00
38163;BME280;23977;53.078;18.248;2023-05-16T05:25:11;100481.94;;;14.61;100.00
38163;BME280;23977;53.078;18.248;2023-05-16T05:27:37;100477.41;;;14.90;100.00
38163;BME280;23977;53.078;18.248;2023-05-16T05:30:03;100520.69;;;15.57;100.00
38163;BME280;23977;53.078;18.248;2023-05-16T05:32:28;100535.03;;;16.25;99.77
38163;BME280;23977;53.078;18.248;2023-05-16T05:34:54;100546.47;;;16.68;95.30
38163;BME280;23977;53.078;18.248;2023-05-16T05:37:20;100538.16;;;16.36;96.57
38163;BME280;23977;53.078;18.248;2023-05-16T05:39:45;100545.16;;;16.37;98.75
38163;BME280;23977;53.078;18.248;2023-05-16T05:42:11;100533.75;;;16.15;98.50
38163;BME280;23977;53.078;18.248;2023-05-16T05:44:37;100543.06;;;16.19;98.14
38163;BME280;23977;53.078;18.248;2023-05-16T05:47:20;100562.63;;;16.88;95.85
38163;BME280;23977;53.078;18.248;2023-05-16T05:50:05;100559.19;;;21.09;76.98
38163;BME280;23977;53.078;18.248;2023-05-16T05:52:33;100552.50;;;22.16;65.44
38163;BME280;23977;53.078;18.248;2023-05-16T05:54:59;100517.19;;;22.11;76.39
38163;BME280;23977;53.078;18.248;2023-05-16T05:57:25;100529.63;;;22.24;63.66
38163;BME280;23977;53.078;18.248;2023-05-16T05:59:50;100561.50;;;21.40;66.95
38163;BME280;23977;53.078;18.248;2023-05-16T06:02:17;100551.03;;;20.43;71.59
38163;BME280;23977;53.078;18.248;2023-05-16T06:05:06;100549.34;;;19.81;74.00
38163;BME280;23977;53.078;18.248;2023-05-16T06:07:33;100561.66;;;19.58;76.76
38163;BME280;23977;53.078;18.248;2023-05-16T06:10:17;100505.06;;;19.08;76.68
38163;BME280;23977;53.078;18.248;2023-05-16T06:12:46;100394.66;;;18.26;77.15
38163;BME280;23977;53.078;18.248;2023-05-16T06:26:38;100577.72;;;20.93;66.93
38163;BME280;23977;53.078;18.248;2023-05-16T06:29:17;100544.13;;;21.89;65.54
38163;BME280;23977;53.078;18.248;2023-05-16T06:45:18;100598.72;;;21.57;62.03
38163;BME280;23977;53.078;18.248;2023-05-16T06:51:00;100491.31;;;18.41;72.96
38163;BME280;23977;53.078;18.248;2023-05-16T06:53:52;100617.97;;;18.73;76.07
38163;BME280;23977;53.078;18.248;2023-05-16T06:56:58;100610.91;;;17.81;82.13
38163;BME280;23977;53.078;18.248;2023-05-16T06:59:51;100491.03;;;16.33;86.77
38163;BME280;23977;53.078;18.248;2023-05-16T07:02:33;100397.06;;;15.38;91.25
38163;BME280;23977;53.078;18.248;2023-05-16T07:27:25;100471.78;;;19.70;74.94
38163;BME280;23977;53.078;18.248;2023-05-16T07:40:30;100563.50;;;20.44;60.62
38163;BME280;23977;53.078;18.248;2023-05-16T07:43:24;100643.72;;;19.76;64.51
38163;BME280;23977;53.078;18.248;2023-05-16T07:45:53;100521.50;;;17.72;69.89
38163;BME280;23977;53.078;18.248;2023-05-16T07:48:34;100713.19;;;18.60;74.10
38163;BME280;23977;53.078;18.248;2023-05-16T07:51:02;100610.31;;;17.72;75.56
38163;BME280;23977;53.078;18.248;2023-05-16T07:53:29;100600.25;;;17.34;75.20
38163;BME280;23977;53.078;18.248;2023-05-16T07:55:55;100727.47;;;17.82;77.70
38163;BME280;23977;53.078;18.248;2023-05-16T07:58:22;100738.25;;;17.62;80.64
38163;BME280;23977;53.078;18.248;2023-05-16T08:00:50;100771.81;;;17.86;80.21
38163;BME280;23977;53.078;18.248;2023-05-16T08:03:16;100724.81;;;17.88;80.19
38163;BME280;23977;53.078;18.248;2023-05-16T08:05:44;100744.75;;;18.53;79.40
38163;BME280;23977;53.078;18.248;2023-05-16T08:08:10;100756.63;;;19.29;74.91
38163;BME280;23977;53.078;18.248;2023-05-16T08:10:49;100749.38;;;20.23;70.43
38163;BME280;23977;53.078;18.248;2023-05-16T08:13:25;100749.34;;;21.39;66.04
38163;BME280;23977;53.078;18.248;2023-05-16T08:16:19;100761.69;;;22.37;61.83
38163;BME280;23977;53.078;18.248;2023-05-16T08:19:11;100710.03;;;23.01;54.84
38163;BME280;23977;53.078;18.248;2023-05-16T08:21:38;100738.09;;;23.35;55.27
38163;BME280;23977;53.078;18.248;2023-05-16T08:34:39;100638.56;;;19.49;66.20
38163;BME280;23977;53.078;18.248;2023-05-16T08:37:16;100748.59;;;21.09;64.38
38163;BME280;23977;53.078;18.248;2023-05-16T08:42:17;100599.06;;;32.43;34.69
38163;BME280;23977;53.078;18.248;2023-05-16T08:57:39;100721.66;;;38.87;23.25
38163;BME280;23977;53.078;18.248;2023-05-16T09:00:07;100704.00;;;34.75;26.81
38163;BME280;23977;53.078;18.248;2023-05-16T09:02:41;100721.53;;;30.78;32.08
38163;BME280;23977;53.078;18.248;2023-05-16T09:05:11;100728.19;;;28.07;35.76
38163;BME280;23977;53.078;18.248;2023-05-16T09:07:36;100726.56;;;29.74;35.80
38163;BME280;23977;53.078;18.248;2023-05-16T09:10:04;100730.31;;;34.55;31.23
38163;BME280;23977;53.078;18.248;2023-05-16T09:12:31;100718.53;;;38.60;24.19
38163;BME280;23977;53.078;18.248;2023-05-16T09:15:05;100726.25;;;40.90;21.57
38163;BME280;23977;53.078;18.248;2023-05-16T09:17:43;100678.28;;;40.45;22.25
38163;BME280;23977;53.078;18.248;2023-05-16T09:20:17;100681.47;;;39.13;23.07
38163;BME280;23977;53.078;18.248;2023-05-16T09:22:57;100696.94;;;39.42;23.21
38163;BME280;23977;53.078;18.248;2023-05-16T09:25:26;100728.47;;;40.26;22.09
38163;BME280;23977;53.078;18.248;2023-05-16T09:27:53;100719.03;;;39.35;22.77
38163;BME280;23977;53.078;18.248;2023-05-16T09:30:21;100732.00;;;39.91;22.51
38163;BME280;23977;53.078;18.248;2023-05-16T09:32:51;100728.19;;;39.35;22.67
38163;BME280;23977;53.078;18.248;2023-05-16T09:35:44;100754.44;;;36.28;24.07
38163;BME280;23977;53.078;18.248;2023-05-16T09:38:15;100687.09;;;33.62;27.67
38163;BME280;23977;53.078;18.248;2023-05-16T09:40:42;100723.09;;;33.79;28.59
38163;BME280;23977;53.078;18.248;2023-05-16T09:43:14;100712.75;;;35.86;27.12
38163;BME280;23977;53.078;18.248;2023-05-16T09:45:44;100612.81;;;36.21;24.65
38163;BME280;23977;53.078;18.248;2023-05-16T09:48:11;100675.16;;;37.11;24.21
38163;BME280;23977;53.078;18.248;2023-05-16T09:50:57;100582.25;;;37.54;23.15
38163;BME280;23977;53.078;18.248;2023-05-16T09:53:32;100690.50;;;37.42;22.92
38163;BME280;23977;53.078;18.248;2023-05-16T09:56:00;100728.22;;;35.87;24.77
38163;BME280;23977;53.078;18.248;2023-05-16T09:58:29;100647.00;;;35.65;25.50
38163;BME280;23977;53.078;18.248;2023-05-16T10:00:57;100597.88;;;36.76;24.18
38163;BME280;23977;53.078;18.248;2023-05-16T10:03:25;100725.22;;;37.48;23.39
38163;BME280;23977;53.078;18.248;2023-05-16T10:05:53;100749.84;;;35.20;25.67
38163;BME280;23977;53.078;18.248;2023-05-16T10:08:20;100716.88;;;31.63;28.89
38163;BME280;23977;53.078;18.248;2023-05-16T10:10:52;100743.09;;;29.69;31.22
38163;BME280;23977;53.078;18.248;2023-05-16T10:16:12;100776.34;;;27.30;35.22
38163;BME280;23977;53.078;18.248;2023-05-16T10:18:39;100808.47;;;26.92;37.15
38163;BME280;23977;53.078;18.248;2023-05-16T10:21:07;100813.94;;;26.92;37.22
38163;BME280;23977;53.078;18.248;2023-05-16T10:23:34;100810.34;;;25.54;39.45
38163;BME280;23977;53.078;18.248;2023-05-16T10:26:02;100821.44;;;25.47;42.63
38163;BME280;23977;53.078;18.248;2023-05-16T10:28:31;100810.00;;;25.82;42.36
38163;BME280;23977;53.078;18.248;2023-05-16T10:30:57;100788.97;;;25.40;42.65
38163;BME280;23977;53.078;18.248;2023-05-16T10:33:23;100791.22;;;24.99;43.00
38163;BME280;23977;53.078;18.248;2023-05-16T10:35:49;100812.16;;;24.93;44.57
38163;BME280;23977;53.078;18.248;2023-05-16T10:38:17;100788.06;;;24.58;45.01
38163;BME280;23977;53.078;18.248;2023-05-16T10:40:44;100811.66;;;24.35;44.33
38163;BME280;23977;53.078;18.248;2023-05-16T10:43:26;100790.47;;;24.37;47.03
38163;BME280;23977;53.078;18.248;2023-05-16T10:46:10;100792.94;;;24.39;47.29
38163;BME280;23977;53.078;18.248;2023-05-16T10:48:37;100795.47;;;24.46;45.71
38163;BME280;23977;53.078;18.248;2023-05-16T10:54:50;100702.88;;;23.96;45.50
38163;BME280;23977;53.078;18.248;2023-05-16T10:57:22;100659.50;;;24.01;45.43
38163;BME280;23977;53.078;18.248;2023-05-16T11:02:43;100642.97;;;23.69;45.49
38163;BME280;23977;53.078;18.248;2023-05-16T11:05:13;100812.16;;;25.21;45.49
38163;BME280;23977;53.078;18.248;2023-05-16T11:19:57;100762.63;;;25.89;40.81
38163;BME280;23977;53.078;18.248;2023-05-16T11:25:35;100727.69;;;25.80;38.78
38163;BME280;23977;53.078;18.248;2023-05-16T11:28:07;100833.00;;;26.29;41.27
38163;BME280;23977;53.078;18.248;2023-05-16T11:30:34;100805.22;;;25.95;39.45
38163;BME280;23977;53.078;18.248;2023-05-16T11:33:00;100833.56;;;26.31;41.24
38163;BME280;23977;53.078;18.248;2023-05-16T11:35:27;100814.31;;;26.06;38.74
38163;BME280;23977;53.078;18.248;2023-05-16T11:38:05;100823.31;;;25.74;41.19
38163;BME280;23977;53.078;18.248;2023-05-16T11:40:35;100814.84;;;25.70;41.18
38163;BME280;23977;53.078;18.248;2023-05-16T11:43:18;100845.19;;;25.52;40.97
38163;BME280;23977;53.078;18.248;2023-05-16T11:45:45;100829.28;;;25.38;41.30
38163;BME280;23977;53.078;18.248;2023-05-16T11:48:23;100845.19;;;25.52;41.34
38163;BME280;23977;53.078;18.248;2023-05-16T11:50:57;100831.78;;;25.45;40.48
38163;BME280;23977;53.078;18.248;2023-05-16T11:53:23;100741.19;;;24.34;41.95
38163;BME280;23977;53.078;18.248;2023-05-16T11:55:51;100879.88;;;25.12;43.44
38163;BME280;23977;53.078;18.248;2023-05-16T11:58:18;100881.78;;;25.34;42.59
38163;BME280;23977;53.078;18.248;2023-05-16T12:00:49;100843.72;;;25.17;41.29
38163;BME280;23977;53.078;18.248;2023-05-16T12:06:16;100897.44;;;25.43;42.48
38163;BME280;23977;53.078;18.248;2023-05-16T12:12:53;100692.47;;;23.54;43.81
38163;BME280;23977;53.078;18.248;2023-05-16T12:15:39;100707.63;;;23.16;45.60
38163;BME280;23977;53.078;18.248;2023-05-16T12:24:11;100683.47;;;21.46;48.54
38163;BME280;23977;53.078;18.248;2023-05-16T12:26:45;100710.94;;;21.19;50.56
38163;BME280;23977;53.078;18.248;2023-05-16T12:29:15;100713.41;;;20.60;53.11
38163;BME280;23977;53.078;18.248;2023-05-16T12:32:00;100838.44;;;20.80;55.07
38163;BME280;23977;53.078;18.248;2023-05-16T12:34:28;100901.75;;;21.10;56.30
38163;BME280;23977;53.078;18.248;2023-05-16T12:36:54;100927.22;;;21.39;56.87
38163;BME280;23977;53.078;18.248;2023-05-16T12:39:21;100916.69;;;21.79;55.55
38163;BME280;23977;53.078;18.248;2023-05-16T12:47:20;100836.16;;;22.10;52.83
38163;BME280;23977;53.078;18.248;2023-05-16T12:50:01;100917.03;;;22.84;50.85
38163;BME280;23977;53.078;18.248;2023-05-16T12:52:36;100856.31;;;22.14;50.91
38163;BME280;23977;53.078;18.248;2023-05-16T12:55:08;100698.28;;;20.89;53.02
38163;BME280;23977;53.078;18.248;2023-05-16T12:57:36;100850.91;;;21.49;52.83
38163;BME280;23977;53.078;18.248;2023-05-16T13:03:58;100947.88;;;20.78;66.56
38163;BME280;23977;53.078;18.248;2023-05-16T13:06:25;100783.28;;;19.50;67.71
38163;BME280;23977;53.078;18.248;2023-05-16T13:12:22;100922.06;;;21.19;68.13
38163;BME280;23977;53.078;18.248;2023-05-16T13:14:56;100942.50;;;21.82;66.30
38163;BME280;23977;53.078;18.248;2023-05-16T13:17:22;100933.41;;;22.18;63.24
38163;BME280;23977;53.078;18.248;2023-05-16T13:19:49;100905.56;;;22.23;63.63
38163;BME280;23977;53.078;18.248;2023-05-16T13:22:14;100917.63;;;22.75;62.61
38163;BME280;23977;53.078;18.248;2023-05-16T13:28:49;100880.50;;;22.75;62.21
38163;BME280;23977;53.078;18.248;2023-05-16T13:35:35;100729.72;;;20.53;66.74
38163;BME280;23977;53.078;18.248;2023-05-16T13:38:02;100858.44;;;21.10;65.73
38163;BME280;23977;53.078;18.248;2023-05-16T13:40:33;100878.31;;;20.41;67.95
38163;BME280;23977;53.078;18.248;2023-05-16T13:43:44;100962.66;;;20.50;64.65
38163;BME280;23977;53.078;18.248;2023-05-16T13:46:37;100920.53;;;20.17;65.84
38163;BME280;23977;53.078;18.248;2023-05-16T13:52:39;100961.56;;;21.20;62.46
38163;BME280;23977;53.078;18.248;2023-05-16T13:55:31;100773.97;;;20.40;61.62
38163;BME280;23977;53.078;18.248;2023-05-16T13:58:08;100954.97;;;21.53;60.52
38163;BME280;23977;53.078;18.248;2023-05-16T14:00:37;100919.25;;;21.25;61.20
38163;BME280;23977;53.078;18.248;2023-05-16T14:03:09;100961.25;;;21.84;59.98
38163;BME280;23977;53.078;18.248;2023-05-16T14:08:57;100821.53;;;21.46;58.12
38163;BME280;23977;53.078;18.248;2023-05-16T14:11:23;100746.47;;;21.11;57.55
38163;BME280;23977;53.078;18.248;2023-05-16T14:14:22;100683.53;;;20.55;57.87
38163;BME280;23977;53.078;18.248;2023-05-16T14:17:38;100738.31;;;20.68;59.58
38163;BME280;23977;53.078;18.248;2023-05-16T14:20:49;100913.84;;;21.74;58.66
38163;BME280;23977;53.078;18.248;2023-05-16T14:23:15;100783.09;;;20.95;58.17
38163;BME280;23977;53.078;18.248;2023-05-16T14:25:41;100797.88;;;21.11;56.14
38163;BME280;23977;53.078;18.248;2023-05-16T14:28:08;100960.97;;;22.15;57.73
38163;BME280;23977;53.078;18.248;2023-05-16T14:30:34;100852.09;;;21.34;58.26
38163;BME280;23977;53.078;18.248;2023-05-16T14:33:02;100812.88;;;21.25;58.49
38163;BME280;23977;53.078;18.248;2023-05-16T14:35:28;100735.84;;;20.97;57.10
38163;BME280;23977;53.078;18.248;2023-05-16T14:37:56;100953.16;;;22.49;56.67
38163;BME280;23977;53.078;18.248;2023-05-16T14:40:22;100745.88;;;21.51;57.47
38163;BME280;23977;53.078;18.248;2023-05-16T14:42:49;100799.50;;;22.20;52.92
38163;BME280;23977;53.078;18.248;2023-05-16T14:45:17;100825.56;;;22.21;52.36
38163;BME280;23977;53.078;18.248;2023-05-16T14:47:43;100761.09;;;21.64;53.79
38163;BME280;23977;53.078;18.248;2023-05-16T14:50:10;100962.22;;;22.90;51.92
38163;BME280;23977;53.078;18.248;2023-05-16T14:52:39;100743.47;;;21.42;51.78
38163;BME280;23977;53.078;18.248;2023-05-16T14:55:05;100751.69;;;21.24;52.15
38163;BME280;23977;53.078;18.248;2023-05-16T14:57:32;100916.78;;;22.27;53.21
38163;BME280;23977;53.078;18.248;2023-05-16T14:59:59;100947.66;;;22.26;52.93
38163;BME280;23977;53.078;18.248;2023-05-16T15:02:25;100858.91;;;21.06;53.65
38163;BME280;23977;53.078;18.248;2023-05-16T15:04:51;100741.28;;;20.23;54.49
38163;BME280;23977;53.078;18.248;2023-05-16T15:07:19;100782.28;;;20.20;54.92
38163;BME280;23977;53.078;18.248;2023-05-16T15:09:45;100956.72;;;21.10;55.82
38163;BME280;23977;53.078;18.248;2023-05-16T15:12:12;100804.41;;;19.85;55.72
38163;BME280;23977;53.078;18.248;2023-05-16T15:14:39;100975.41;;;20.93;56.26
38163;BME280;23977;53.078;18.248;2023-05-16T15:17:06;100828.59;;;19.67;57.27
38163;BME280;23977;53.078;18.248;2023-05-16T15:19:32;100788.94;;;19.03;58.03
38163;BME280;23977;53.078;18.248;2023-05-16T15:21:58;100859.06;;;19.49;58.00
38163;BME280;23977;53.078;18.248;2023-05-16T15:24:27;100831.88;;;19.05;59.42
38163;BME280;23977;53.078;18.248;2023-05-16T15:26:54;101000.34;;;20.13;60.56
38163;BME280;23977;53.078;18.248;2023-05-16T15:29:20;100808.72;;;18.77;60.10